createdAt,value
2023-02-27T00:00:20.358Z,82.75
2023-02-27T00:02:51.830Z,82.68
2023-02-27T00:05:22.490Z,83.41
2023-02-27T00:07:51.000Z,83.08
2023-02-27T00:10:21.260Z,83.04
2023-02-27T00:12:54.286Z,84.57
2023-02-27T00:15:22.623Z,83.74
2023-02-27T00:17:51.134Z,84.06
2023-02-27T00:20:20.973Z,84.33
2023-02-27T00:22:49.214Z,84.16
2023-02-27T00:25:17.847Z,83.88
2023-02-27T00:27:47.425Z,83.81
2023-02-27T00:30:17.167Z,83.59
2023-02-27T00:32:45.676Z,83.92
2023-02-27T00:35:14.216Z,84.24
2023-02-27T00:37:43.047Z,84.22
2023-02-27T00:40:13.416Z,83.03
2023-02-27T00:42:41.953Z,83.70
2023-02-27T00:45:12.424Z,83.98
2023-02-27T00:47:40.617Z,83.55
2023-02-27T00:50:10.562Z,83.69
2023-02-27T00:52:38.893Z,83.98
2023-02-27T00:55:08.598Z,83.92
2023-02-27T00:57:36.831Z,83.52
2023-02-27T01:00:07.339Z,83.56
2023-02-27T01:02:37.186Z,84.12
2023-02-27T01:05:10.165Z,83.93
2023-02-27T01:07:39.311Z,83.73
2023-02-27T01:10:11.071Z,83.43
2023-02-27T01:12:39.905Z,83.75
2023-02-27T01:15:10.890Z,83.73
2023-02-27T01:17:40.612Z,83.51
2023-02-27T01:20:11.740Z,83.48
2023-02-27T01:22:40.043Z,83.57
2023-02-27T01:25:09.839Z,83.83
2023-02-27T01:27:40.842Z,83.55
2023-02-27T01:30:17.390Z,83.10
2023-02-27T01:32:47.470Z,83.29
2023-02-27T01:35:15.835Z,83.16
2023-02-27T01:37:44.606Z,83.39
2023-02-27T01:40:14.899Z,82.97
2023-02-27T01:42:43.750Z,83.98
2023-02-27T01:45:30.335Z,82.83
2023-02-27T01:48:08.098Z,83.08
2023-02-27T01:50:40.857Z,82.76
2023-02-27T01:53:11.639Z,82.47
2023-02-27T01:55:40.706Z,82.55
2023-02-27T01:58:12.575Z,82.36
2023-02-27T02:00:41.210Z,83.31
2023-02-27T02:03:19.956Z,83.34
2023-02-27T02:05:48.938Z,83.14
2023-02-27T02:08:21.244Z,83.48
2023-02-27T02:10:52.925Z,82.96
2023-02-27T02:13:23.968Z,83.82
2023-02-27T02:16:08.585Z,82.93
2023-02-27T02:18:50.147Z,83.51
2023-02-27T02:22:11.597Z,83.69
2023-02-27T02:25:33.994Z,83.38
2023-02-27T02:28:17.010Z,83.11
2023-02-27T02:31:25.384Z,83.82
2023-02-27T02:34:44.227Z,84.33
2023-02-27T02:38:04.495Z,83.78
2023-02-27T02:40:39.209Z,83.47
2023-02-27T02:43:13.585Z,84.25
2023-02-27T02:45:51.171Z,83.49
2023-02-27T02:48:28.247Z,83.53
2023-02-27T02:51:07.025Z,83.95
2023-02-27T02:53:43.994Z,83.83
2023-02-27T02:56:23.204Z,84.24
2023-02-27T02:58:59.729Z,83.96
2023-02-27T03:01:33.454Z,83.99
2023-02-27T03:04:09.620Z,84.23
2023-02-27T03:06:42.079Z,84.28
2023-02-27T03:09:18.420Z,84.74
2023-02-27T03:11:52.271Z,84.23
2023-02-27T03:14:30.336Z,84.54
2023-02-27T03:17:08.316Z,84.76
2023-02-27T03:19:42.694Z,84.54
2023-02-27T03:22:16.787Z,84.71
2023-02-27T03:24:49.359Z,84.74
2023-02-27T03:27:20.312Z,85.02
2023-02-27T03:29:54.922Z,84.22
2023-02-27T03:32:31.151Z,84.79
2023-02-27T03:35:01.091Z,85.51
2023-02-27T03:37:39.596Z,84.39
2023-02-27T03:40:20.372Z,84.44
2023-02-27T03:42:57.384Z,84.71
2023-02-27T03:45:59.266Z,84.34
2023-02-27T03:48:27.712Z,84.22
2023-02-27T03:50:56.237Z,84.33
2023-02-27T03:53:33.434Z,84.10
2023-02-27T03:56:04.324Z,83.74
2023-02-27T03:58:34.298Z,83.59
2023-02-27T04:01:03.035Z,83.91
2023-02-27T04:03:35.696Z,84.50
2023-02-27T04:06:24.572Z,84.02
2023-02-27T04:09:00.667Z,85.07
2023-02-27T04:11:57.340Z,84.16
2023-02-27T04:14:43.073Z,85.18
2023-02-27T04:17:25.329Z,85.17
2023-02-27T04:20:14.625Z,85.27
2023-02-27T04:22:49.517Z,85.07
2023-02-27T04:25:35.941Z,85.36
2023-02-27T04:28:17.402Z,85.16
2023-02-27T04:31:04.224Z,85.55
2023-02-27T04:33:44.790Z,85.74
2023-02-27T04:36:20.592Z,85.06
2023-02-27T04:38:55.406Z,85.74
2023-02-27T04:41:29.288Z,85.94
2023-02-27T04:43:59.411Z,85.93
2023-02-27T04:46:31.735Z,85.88
2023-02-27T04:49:05.005Z,86.05
2023-02-27T04:51:40.048Z,85.89
2023-02-27T04:54:12.129Z,86.56
2023-02-27T04:56:45.972Z,86.63
2023-02-27T04:59:19.484Z,87.26
2023-02-27T05:02:16.620Z,86.70
2023-02-27T05:04:46.612Z,86.46
2023-02-27T05:07:20.036Z,86.78
2023-02-27T05:09:53.431Z,86.46
2023-02-27T05:12:26.520Z,86.96
2023-02-27T05:15:02.293Z,86.43
2023-02-27T05:17:37.302Z,86.71
2023-02-27T05:20:07.937Z,86.29
2023-02-27T05:22:47.268Z,85.79
2023-02-27T05:25:22.639Z,86.62
2023-02-27T05:27:55.471Z,86.34
2023-02-27T05:30:29.997Z,87.23
2023-02-27T05:33:06.700Z,87.30
2023-02-27T05:35:39.750Z,86.95
2023-02-27T05:38:16.538Z,87.14
2023-02-27T05:40:50.940Z,87.45
2023-02-27T05:43:24.510Z,86.83
2023-02-27T05:45:57.919Z,86.48
2023-02-27T05:48:32.256Z,86.80
2023-02-27T05:51:01.061Z,86.47
2023-02-27T05:53:35.180Z,86.04
2023-02-27T05:56:06.719Z,86.54
2023-02-27T05:58:40.206Z,86.43
2023-02-27T06:01:11.428Z,86.96
2023-02-27T06:03:42.150Z,86.73
2023-02-27T06:06:15.799Z,86.51
2023-02-27T06:08:44.364Z,86.28
2023-02-27T06:11:13.276Z,86.55
2023-02-27T06:13:42.284Z,86.08
2023-02-27T06:16:13.151Z,86.30
2023-02-27T06:18:42.831Z,86.44
2023-02-27T06:21:15.032Z,86.13
2023-02-27T06:23:43.341Z,86.03
2023-02-27T06:26:14.286Z,85.38
2023-02-27T06:28:43.360Z,85.58
2023-02-27T06:31:11.677Z,85.77
2023-02-27T06:33:40.359Z,85.40
2023-02-27T06:36:10.001Z,85.85
2023-02-27T06:38:38.255Z,85.29
2023-02-27T06:41:07.457Z,85.19
2023-02-27T06:43:37.111Z,85.51
2023-02-27T06:46:06.522Z,85.70
2023-02-27T06:48:35.214Z,85.27
2023-02-27T06:51:03.589Z,85.53
2023-02-27T06:53:33.507Z,85.39
2023-02-27T06:56:01.821Z,85.54
2023-02-27T06:58:30.005Z,84.79
2023-02-27T07:01:00.669Z,83.77
2023-02-27T07:03:30.826Z,84.68
2023-02-27T07:05:59.563Z,83.83
2023-02-27T07:08:27.921Z,84.55
2023-02-27T07:10:57.597Z,84.83
2023-02-27T07:13:25.962Z,84.23
2023-02-27T07:15:54.255Z,83.42
2023-02-27T07:18:22.560Z,84.27
2023-02-27T07:20:52.349Z,84.32
2023-02-27T07:23:20.625Z,82.55
2023-02-27T07:25:49.402Z,82.88
2023-02-27T07:28:19.143Z,82.51
2023-02-27T07:30:47.805Z,81.99
2023-02-27T07:33:16.114Z,82.04
2023-02-27T07:35:46.648Z,81.54
2023-02-27T07:38:14.871Z,81.40
2023-02-27T07:40:43.291Z,80.50
2023-02-27T07:43:12.611Z,81.31
2023-02-27T07:45:42.754Z,80.79
2023-02-27T07:48:11.044Z,80.29
2023-02-27T07:50:39.541Z,80.41
2023-02-27T07:53:08.074Z,79.52
2023-02-27T07:55:36.730Z,79.63
2023-02-27T07:58:04.960Z,78.74
2023-02-27T08:00:33.186Z,77.63
2023-02-27T08:03:02.846Z,78.16
2023-02-27T08:05:31.447Z,77.75
2023-02-27T08:07:59.750Z,76.82
2023-02-27T08:10:28.089Z,76.93
2023-02-27T08:12:56.720Z,76.91
2023-02-27T08:15:25.433Z,76.10
2023-02-27T08:17:53.714Z,76.68
2023-02-27T08:20:24.028Z,76.95
2023-02-27T08:22:52.443Z,76.71
2023-02-27T08:25:21.481Z,76.48
2023-02-27T08:27:49.711Z,76.48
2023-02-27T08:30:18.266Z,77.22
2023-02-27T08:32:46.697Z,75.06
2023-02-27T08:35:15.438Z,75.35
2023-02-27T08:37:45.000Z,73.78
2023-02-27T08:40:13.856Z,75.03
2023-02-27T08:42:42.086Z,74.36
2023-02-27T08:45:12.159Z,74.43
2023-02-27T08:47:40.386Z,73.68
2023-02-27T08:50:10.551Z,74.18
2023-02-27T08:52:38.874Z,73.57
2023-02-27T08:55:10.345Z,71.86
2023-02-27T08:57:39.442Z,73.71
2023-02-27T09:00:10.488Z,73.06
2023-02-27T09:02:38.949Z,70.92
2023-02-27T09:05:17.923Z,71.89
2023-02-27T09:07:46.123Z,72.61
2023-02-27T09:10:16.074Z,73.12
2023-02-27T09:12:44.385Z,72.09
2023-02-27T09:15:13.270Z,71.70
2023-02-27T09:17:41.830Z,70.75
2023-02-27T09:20:12.263Z,70.16
2023-02-27T09:22:41.293Z,70.27
2023-02-27T09:25:10.743Z,69.49
2023-02-27T09:27:40.326Z,67.81
2023-02-27T09:30:10.760Z,67.90
2023-02-27T09:32:41.595Z,67.95
2023-02-27T09:35:10.792Z,67.88
2023-02-27T09:37:39.412Z,68.91
2023-02-27T09:40:09.095Z,67.33
2023-02-27T09:42:45.493Z,67.10
2023-02-27T09:45:24.174Z,67.28
2023-02-27T09:47:57.717Z,65.51
2023-02-27T09:50:40.083Z,66.99
2023-02-27T09:53:16.150Z,67.41
2023-02-27T09:55:47.121Z,68.30
2023-02-27T09:58:36.147Z,68.33
2023-02-27T10:01:11.531Z,68.70
2023-02-27T10:04:14.093Z,67.46
2023-02-27T10:06:48.381Z,67.10
2023-02-27T10:09:31.227Z,67.15
2023-02-27T10:12:14.203Z,67.48
2023-02-27T10:14:49.222Z,67.52
2023-02-27T10:17:25.626Z,67.89
2023-02-27T10:19:55.647Z,68.23
2023-02-27T10:22:29.933Z,66.77
2023-02-27T10:25:06.263Z,65.99
2023-02-27T10:27:37.886Z,64.90
2023-02-27T10:30:29.481Z,64.14
2023-02-27T10:33:12.698Z,64.14
2023-02-27T10:35:44.690Z,62.77
2023-02-27T10:38:18.025Z,64.02
2023-02-27T10:40:47.899Z,62.84
2023-02-27T10:43:19.447Z,63.17
2023-02-27T10:45:49.133Z,62.69
2023-02-27T10:48:18.405Z,63.02
2023-02-27T10:50:51.099Z,61.57
2023-02-27T10:53:23.026Z,62.40
2023-02-27T10:56:01.999Z,63.34
2023-02-27T10:58:34.876Z,62.25
2023-02-27T11:01:07.517Z,62.60
2023-02-27T11:03:41.145Z,60.11
2023-02-27T11:06:14.522Z,59.79
2023-02-27T11:08:43.688Z,59.73
2023-02-27T11:11:13.298Z,58.81
2023-02-27T11:13:44.162Z,59.21
2023-02-27T11:16:16.908Z,59.18
2023-02-27T11:18:47.632Z,59.80
2023-02-27T11:21:23.227Z,60.46
2023-02-27T11:24:01.690Z,61.08
2023-02-27T11:26:36.279Z,58.43
2023-02-27T11:29:18.392Z,58.01
2023-02-27T11:31:53.185Z,59.50
2023-02-27T11:34:30.000Z,58.57
2023-02-27T11:37:02.029Z,58.79
2023-02-27T11:39:37.797Z,58.14
2023-02-27T11:42:20.113Z,57.61
2023-02-27T11:44:56.819Z,57.51
2023-02-27T11:47:32.591Z,57.94
2023-02-27T11:50:42.030Z,58.26
2023-02-27T11:53:47.957Z,57.37
2023-02-27T11:56:22.499Z,56.46
2023-02-27T11:59:02.735Z,57.14
2023-02-27T12:01:38.451Z,58.00
2023-02-27T12:04:15.967Z,59.36
2023-02-27T12:06:52.100Z,58.82
2023-02-27T12:09:35.749Z,58.01
2023-02-27T12:12:10.598Z,58.61
2023-02-27T12:14:48.404Z,57.64
2023-02-27T12:17:23.711Z,59.22
2023-02-27T12:20:22.723Z,60.12
2023-02-27T12:22:54.553Z,57.62
2023-02-27T12:25:37.793Z,57.25
2023-02-27T12:28:21.653Z,58.12
2023-02-27T12:31:07.787Z,57.70
2023-02-27T12:33:43.489Z,57.68
2023-02-27T12:36:15.369Z,57.26
2023-02-27T12:38:43.820Z,59.09
2023-02-27T12:41:37.648Z,58.37
2023-02-27T12:44:32.220Z,56.92
2023-02-27T12:47:16.045Z,56.38
2023-02-27T12:49:53.778Z,56.35
2023-02-27T12:52:38.541Z,54.21
2023-02-27T12:55:14.263Z,54.06
2023-02-27T12:58:15.139Z,52.73
2023-02-27T13:00:48.790Z,54.57
2023-02-27T13:03:23.291Z,55.16
2023-02-27T13:06:01.673Z,54.86
2023-02-27T13:08:58.408Z,54.14
2023-02-27T13:11:44.493Z,56.04
2023-02-27T13:14:29.625Z,54.19
2023-02-27T13:17:03.253Z,53.23
2023-02-27T13:19:36.496Z,53.06
2023-02-27T13:22:16.047Z,53.75
2023-02-27T13:24:50.257Z,54.38
2023-02-27T13:27:25.001Z,55.49
2023-02-27T13:30:08.438Z,55.17
2023-02-27T13:32:45.618Z,52.91
2023-02-27T13:35:29.606Z,51.02
2023-02-27T13:38:02.187Z,51.10
2023-02-27T13:40:41.455Z,51.03
2023-02-27T13:43:40.555Z,49.54
2023-02-27T13:46:24.971Z,49.23
2023-02-27T13:48:54.558Z,49.98
2023-02-27T13:51:59.617Z,50.18
2023-02-27T13:54:32.793Z,49.49
2023-02-27T13:57:24.307Z,48.96
2023-02-27T13:59:57.153Z,48.43
2023-02-27T14:02:57.820Z,48.02
2023-02-27T14:05:36.331Z,47.12
2023-02-27T14:08:15.456Z,47.77
2023-02-27T14:10:58.165Z,48.51
2023-02-27T14:14:06.639Z,48.55
2023-02-27T14:19:59.469Z,49.36
2023-02-27T14:23:18.176Z,50.16
2023-02-27T14:25:49.230Z,51.51
2023-02-27T14:28:27.220Z,49.70
2023-02-27T14:31:01.086Z,48.51
2023-02-27T14:33:45.509Z,47.95
2023-02-27T14:36:20.490Z,46.53
2023-02-27T14:38:49.881Z,46.30
2023-02-27T14:41:38.088Z,45.99
2023-02-27T14:44:06.573Z,47.07
2023-02-27T14:46:39.386Z,48.23
2023-02-27T14:49:18.940Z,48.29
2023-02-27T14:51:47.288Z,49.99
2023-02-27T14:54:19.592Z,49.77
2023-02-27T14:56:56.104Z,50.61
2023-02-27T14:59:26.566Z,50.93
2023-02-27T15:02:04.382Z,49.32
2023-02-27T15:04:34.438Z,49.55
2023-02-27T15:07:04.082Z,51.69
2023-02-27T15:09:42.893Z,50.04
2023-02-27T15:12:18.147Z,51.54
2023-02-27T15:14:51.486Z,51.20
2023-02-27T15:17:23.056Z,51.21
2023-02-27T15:19:55.159Z,52.43
2023-02-27T15:22:38.642Z,53.26
2023-02-27T15:25:23.647Z,52.59
2023-02-27T15:27:51.949Z,53.46
2023-02-27T15:30:23.568Z,53.20
2023-02-27T15:32:55.640Z,53.82
2023-02-27T15:35:27.545Z,51.36
2023-02-27T15:37:59.399Z,51.81
2023-02-27T15:40:31.488Z,49.90
2023-02-27T15:43:01.342Z,48.02
2023-02-27T15:45:33.643Z,49.06
2023-02-27T15:48:04.019Z,49.56
2023-02-27T15:50:38.163Z,49.24
2023-02-27T15:53:14.838Z,50.50
2023-02-27T15:55:46.956Z,50.86
2023-02-27T15:58:24.335Z,51.40
2023-02-27T16:01:00.714Z,51.81
2023-02-27T16:03:34.747Z,52.69
2023-02-27T16:06:03.258Z,54.17
2023-02-27T16:08:32.447Z,53.44
2023-02-27T16:11:02.399Z,52.76
2023-02-27T16:13:35.925Z,53.70
2023-02-27T16:16:28.113Z,54.54
2023-02-27T16:19:00.166Z,53.77
2023-02-27T16:21:31.558Z,55.02
2023-02-27T16:24:21.617Z,55.28
2023-02-27T16:26:53.563Z,55.22
2023-02-27T16:29:25.276Z,54.95
2023-02-27T16:31:56.608Z,55.97
2023-02-27T16:34:44.268Z,56.18
2023-02-27T16:37:22.828Z,56.19
2023-02-27T16:39:54.278Z,56.06
2023-02-27T16:42:22.952Z,56.68
2023-02-27T16:44:51.250Z,57.41
2023-02-27T16:47:19.509Z,57.19
2023-02-27T16:49:49.497Z,57.87
2023-02-27T16:52:17.780Z,57.68
2023-02-27T16:54:46.100Z,58.43
2023-02-27T16:57:14.360Z,57.99
2023-02-27T16:59:44.125Z,57.41
2023-02-27T17:02:16.195Z,56.95
2023-02-27T17:04:50.038Z,58.12
2023-02-27T17:07:19.851Z,57.91
2023-02-27T17:09:49.154Z,57.67
2023-02-27T17:12:18.217Z,57.39
2023-02-27T17:14:47.137Z,58.16
2023-02-27T17:17:15.963Z,57.77
2023-02-27T17:19:45.368Z,57.29
2023-02-27T17:22:15.752Z,57.46
2023-02-27T17:24:44.067Z,57.76
2023-02-27T17:27:12.435Z,58.86
2023-02-27T17:29:40.979Z,58.54
2023-02-27T17:32:09.478Z,58.35
2023-02-27T17:34:37.960Z,58.28
2023-02-27T17:37:06.658Z,58.55
2023-02-27T17:39:36.309Z,57.98
2023-02-27T17:42:04.831Z,58.90
2023-02-27T17:44:33.206Z,58.85
2023-02-27T17:47:01.498Z,58.78
2023-02-27T17:49:29.760Z,58.56
2023-02-27T17:52:00.649Z,57.80
2023-02-27T17:54:29.046Z,59.50
2023-02-27T17:56:58.721Z,59.09
2023-02-27T17:59:27.110Z,59.36
2023-02-27T18:01:55.881Z,60.48
2023-02-27T18:04:24.423Z,59.72
2023-02-27T18:06:53.017Z,59.87
2023-02-27T18:09:21.335Z,59.70
2023-02-27T18:11:49.650Z,60.48
2023-02-27T18:14:19.328Z,60.08
2023-02-27T18:16:47.730Z,59.32
2023-02-27T18:19:15.972Z,59.47
2023-02-27T18:21:47.049Z,60.88
2023-02-27T18:24:17.458Z,59.71
2023-02-27T18:26:45.775Z,59.81
2023-02-27T18:29:16.249Z,60.42
2023-02-27T18:31:50.111Z,60.03
2023-02-27T18:34:18.468Z,60.51
2023-02-27T18:36:46.779Z,59.68
2023-02-27T18:39:15.486Z,59.73
2023-02-27T18:41:43.729Z,59.07
2023-02-27T18:44:12.672Z,59.44
2023-02-27T18:46:41.206Z,60.38
2023-02-27T18:49:11.120Z,59.23
2023-02-27T18:51:39.393Z,60.57
2023-02-27T18:54:08.422Z,60.14
2023-02-27T18:56:36.731Z,60.42
2023-02-27T18:59:06.610Z,60.84
2023-02-27T19:01:42.379Z,60.75
2023-02-27T19:04:12.086Z,60.12
2023-02-27T19:06:42.862Z,59.98
2023-02-27T19:09:16.072Z,60.77
2023-02-27T19:11:46.035Z,61.29
2023-02-27T19:14:16.198Z,60.51
2023-02-27T19:16:46.172Z,60.56
2023-02-27T19:19:15.809Z,59.92
2023-02-27T19:21:44.259Z,60.28
2023-02-27T19:24:14.510Z,61.03
2023-02-27T19:26:43.049Z,60.69
2023-02-27T19:29:11.420Z,60.25
2023-02-27T19:31:40.562Z,62.03
2023-02-27T19:34:09.093Z,61.27
2023-02-27T19:36:40.202Z,60.77
2023-02-27T19:39:08.543Z,62.70
2023-02-27T19:41:37.460Z,61.87
2023-02-27T19:44:05.807Z,61.79
2023-02-27T19:46:35.428Z,61.54
2023-02-27T19:49:06.065Z,61.79
2023-02-27T19:51:34.860Z,62.34
2023-02-27T19:54:05.022Z,60.79
2023-02-27T19:56:33.353Z,60.93
2023-02-27T19:59:02.091Z,60.96
2023-02-27T20:01:34.077Z,61.77
2023-02-27T20:04:03.821Z,61.55
2023-02-27T20:06:42.421Z,60.74
2023-02-27T20:09:15.250Z,59.87
2023-02-27T20:11:44.577Z,60.87
2023-02-27T20:14:14.924Z,60.85
2023-02-27T20:16:44.518Z,60.45
2023-02-27T20:19:16.988Z,60.97
2023-02-27T20:21:46.273Z,61.26
2023-02-27T20:24:18.208Z,62.39
2023-02-27T20:26:49.939Z,61.96
2023-02-27T20:29:21.630Z,61.18
2023-02-27T20:31:52.694Z,61.37
2023-02-27T20:34:26.305Z,62.18
2023-02-27T20:36:56.037Z,61.76
2023-02-27T20:39:27.964Z,61.28
2023-02-27T20:41:56.464Z,61.27
2023-02-27T20:44:24.792Z,61.61
2023-02-27T20:46:53.206Z,62.91
2023-02-27T20:49:22.755Z,62.82
2023-02-27T20:51:51.052Z,61.55
2023-02-27T20:54:21.059Z,62.49
2023-02-27T20:56:54.300Z,61.75
2023-02-27T20:59:25.213Z,63.26
2023-02-27T21:01:55.253Z,63.12
2023-02-27T21:04:43.337Z,62.97
2023-02-27T21:07:12.924Z,62.36
2023-02-27T21:09:41.328Z,62.65
2023-02-27T21:12:12.247Z,63.28
2023-02-27T21:14:44.307Z,63.25
2023-02-27T21:17:13.821Z,62.93
2023-02-27T21:19:42.143Z,63.25
2023-02-27T21:22:11.411Z,63.23
2023-02-27T21:24:39.832Z,63.96
2023-02-27T21:27:08.128Z,64.38
2023-02-27T21:29:37.684Z,64.38
2023-02-27T21:32:07.509Z,64.61
2023-02-27T21:34:35.868Z,63.58
2023-02-27T21:37:07.326Z,63.29
2023-02-27T21:39:35.829Z,64.10
2023-02-27T21:42:06.799Z,65.42
2023-02-27T21:44:38.721Z,64.55
2023-02-27T21:47:10.056Z,63.71
2023-02-27T21:49:39.233Z,65.02
2023-02-27T21:52:08.044Z,64.55
2023-02-27T21:54:36.564Z,64.06
2023-02-27T21:57:05.145Z,65.47
2023-02-27T21:59:33.411Z,64.53
2023-02-27T22:02:03.312Z,65.53
2023-02-27T22:04:31.631Z,66.11
2023-02-27T22:07:00.047Z,65.45
2023-02-27T22:09:28.604Z,65.78
2023-02-27T22:11:57.314Z,65.69
2023-02-27T22:14:26.211Z,67.88
2023-02-27T22:16:54.471Z,67.63
2023-02-27T22:19:24.038Z,67.45
2023-02-27T22:21:52.438Z,67.04
2023-02-27T22:24:20.982Z,67.42
2023-02-27T22:26:50.300Z,69.15
2023-02-27T22:29:18.791Z,67.75
2023-02-27T22:31:47.978Z,68.79
2023-02-27T22:34:19.324Z,69.50
2023-02-27T22:36:52.365Z,68.22
2023-02-27T22:39:21.451Z,68.39
2023-02-27T22:41:49.858Z,69.41
2023-02-27T22:44:18.679Z,68.90
2023-02-27T22:46:49.077Z,69.83
2023-02-27T22:49:19.999Z,70.56
2023-02-27T22:51:51.618Z,70.10
2023-02-27T22:54:21.474Z,70.46
2023-02-27T22:56:51.773Z,71.84
2023-02-27T22:59:20.435Z,71.11
2023-02-27T23:04:43.505Z,71.73
2023-02-27T23:07:13.039Z,72.58
2023-02-27T23:09:41.410Z,71.49
2023-02-27T23:12:09.678Z,72.83
2023-02-27T23:14:37.863Z,73.19
2023-02-27T23:17:06.051Z,72.80
2023-02-27T23:19:34.633Z,73.47
2023-02-27T23:22:02.939Z,72.76
2023-02-27T23:24:32.466Z,72.27
2023-02-27T23:27:02.711Z,74.03
2023-02-27T23:29:31.188Z,73.21
2023-02-27T23:31:59.531Z,74.67
2023-02-27T23:34:29.116Z,74.08
2023-02-27T23:37:01.934Z,73.89
2023-02-27T23:39:30.329Z,73.05
2023-02-27T23:42:00.066Z,74.71
2023-02-27T23:44:27.397Z,74.00
2023-02-27T23:46:55.674Z,74.59
2023-02-27T23:49:24.104Z,74.69
2023-02-27T23:51:52.476Z,74.93
2023-02-27T23:54:20.669Z,75.25
2023-02-27T23:56:49.388Z,75.56
2023-02-27T23:59:19.080Z,74.81
